Avelig — FAD6740 — position and weather

sailwx.info

Track history (hours):
 
Tides and Currents Weather Stations Pressure Air Temp Water Temp Dewpoint Dewpoint Depression Visibility Wind Speed Wind Dir Waves Ship Positions

Avelig

Last reported at 2018-May-21 18:53 UTC. Time now 2018-Jun-18 00:07 UTC.
Position N 47°39' W 002°59'.
Warning: this ship's position is 27 days out of date.

Length 12 m.

Type: Sailing vessel. MMSI: 227417910.

Date/timePositionNaut miles runAvg speedWind from/ knotsBaromVisibWave heightAir tempDewpointWater temp
2018-May-21 18:53N 47°39' W 002°59'0 0.0
2018-May-21 18:26N 47°39' W 002°59'1 2.1
2018-May-21 18:00N 47°39' W 002°58'2 4.3
2018-May-21 17:26N 47°36' W 002°57'2 4.5
2018-May-21 17:00N 47°35' W 002°56'3 5.6
2018-May-21 16:26N 47°32' W 002°54'  
2018-May-19 11:57N 47°29' W 002°54'1 2.7
2018-May-19 11:29N 47°30' W 002°55'4 5.3
2018-May-19 10:49N 47°34' W 002°55'3 6.1
2018-May-19 10:24N 47°36' W 002°57'2 4.9
2018-May-19 10:00N 47°38' W 002°58'2 2.3
2018-May-19 09:07N 47°40' W 002°59'0 1.0
2018-May-19 08:59N 47°39' W 002°59'  
2018-May-12 10:03N 47°39' W 002°59'0 0.4
2018-May-12 10:01N 47°39' W 002°59'2 4.3
2018-May-12 09:31N 47°37' W 002°57'4 3.6
2018-May-12 08:23N 47°34' W 002°54'2 5.1
2018-May-12 08:01N 47°34' W 002°51'2 4.0
2018-May-12 07:30N 47°34' W 002°48'  
Track history (hours):
 
Tides and Currents Weather Stations Pressure Air Temp Water Temp Dewpoint Dewpoint Depression Visibility Wind Speed Wind Dir Waves Ship Positions

Avelig

Last reported at 2018-May-21 18:53 UTC. Time now 2018-Jun-18 00:07 UTC.
Position N 47°39' W 002°59'.
Warning: this ship's position is 27 days out of date.

Length 12 m.

Type: Sailing vessel. MMSI: 227417910.

Date/timePositionNaut miles runAvg speedWind from/ knotsBaromVisibWave heightAir tempDewpointWater temp
2018-May-21 18:53N 47°39' W 002°59'0 0.0
2018-May-21 18:26N 47°39' W 002°59'1 2.1
2018-May-21 18:00N 47°39' W 002°58'2 4.3
2018-May-21 17:26N 47°36' W 002°57'2 4.5
2018-May-21 17:00N 47°35' W 002°56'3 5.6
2018-May-21 16:26N 47°32' W 002°54'  
2018-May-19 11:57N 47°29' W 002°54'1 2.7
2018-May-19 11:29N 47°30' W 002°55'4 5.3
2018-May-19 10:49N 47°34' W 002°55'3 6.1
2018-May-19 10:24N 47°36' W 002°57'2 4.9
2018-May-19 10:00N 47°38' W 002°58'2 2.3
2018-May-19 09:07N 47°40' W 002°59'0 1.0
2018-May-19 08:59N 47°39' W 002°59'  
2018-May-12 10:03N 47°39' W 002°59'0 0.4
2018-May-12 10:01N 47°39' W 002°59'2 4.3
2018-May-12 09:31N 47°37' W 002°57'4 3.6
2018-May-12 08:23N 47°34' W 002°54'2 5.1
2018-May-12 08:01N 47°34' W 002°51'2 4.0
2018-May-12 07:30N 47°34' W 002°48'  

Dump ship's entire track history